sensor_id;sensor_type;location;lat;lon;timestamp;P1;durP1;ratioP1;P2;durP2;ratioP2
26512;SDS011;14186;53.822;10.152;2023-04-25T00:02:11;17.55;;;5.93;;
26512;SDS011;14186;53.822;10.152;2023-04-25T00:07:12;17.67;;;4.40;;
26512;SDS011;14186;53.822;10.152;2023-04-25T00:12:13;18.70;;;3.97;;
26512;SDS011;14186;53.822;10.152;2023-04-25T00:17:13;14.57;;;3.47;;
26512;SDS011;14186;53.822;10.152;2023-04-25T00:22:14;10.23;;;3.22;;
26512;SDS011;14186;53.822;10.152;2023-04-25T00:27:15;17.05;;;3.97;;
26512;SDS011;14186;53.822;10.152;2023-04-25T00:32:15;25.52;;;3.47;;
26512;SDS011;14186;53.822;10.152;2023-04-25T00:37:16;10.63;;;2.70;;
26512;SDS011;14186;53.822;10.152;2023-04-25T00:42:17;16.20;;;3.97;;
26512;SDS011;14186;53.822;10.152;2023-04-25T00:47:17;16.30;;;4.38;;
26512;SDS011;14186;53.822;10.152;2023-04-25T00:52:18;18.75;;;3.25;;
26512;SDS011;14186;53.822;10.152;2023-04-25T00:57:20;13.20;;;2.33;;
26512;SDS011;14186;53.822;10.152;2023-04-25T01:02:20;13.57;;;2.60;;
26512;SDS011;14186;53.822;10.152;2023-04-25T01:07:20;17.92;;;3.10;;
26512;SDS011;14186;53.822;10.152;2023-04-25T01:12:22;14.15;;;3.28;;
26512;SDS011;14186;53.822;10.152;2023-04-25T01:17:22;20.83;;;3.40;;
26512;SDS011;14186;53.822;10.152;2023-04-25T01:22:24;17.10;;;3.60;;
26512;SDS011;14186;53.822;10.152;2023-04-25T01:27:24;20.65;;;3.47;;
26512;SDS011;14186;53.822;10.152;2023-04-25T01:32:25;24.88;;;5.10;;
26512;SDS011;14186;53.822;10.152;2023-04-25T01:37:26;18.80;;;3.75;;
26512;SDS011;14186;53.822;10.152;2023-04-25T01:42:27;18.13;;;3.35;;
26512;SDS011;14186;53.822;10.152;2023-04-25T01:47:27;19.85;;;3.55;;
26512;SDS011;14186;53.822;10.152;2023-04-25T01:52:29;16.05;;;3.33;;
26512;SDS011;14186;53.822;10.152;2023-04-25T01:57:29;18.45;;;4.13;;
26512;SDS011;14186;53.822;10.152;2023-04-25T02:02:29;15.32;;;3.92;;
26512;SDS011;14186;53.822;10.152;2023-04-25T02:07:31;20.00;;;3.75;;
26512;SDS011;14186;53.822;10.152;2023-04-25T02:12:31;22.17;;;2.85;;
26512;SDS011;14186;53.822;10.152;2023-04-25T02:17:31;23.75;;;3.88;;
26512;SDS011;14186;53.822;10.152;2023-04-25T02:22:33;16.90;;;2.72;;
26512;SDS011;14186;53.822;10.152;2023-04-25T02:27:33;18.95;;;3.60;;
26512;SDS011;14186;53.822;10.152;2023-04-25T02:32:33;17.70;;;3.55;;
26512;SDS011;14186;53.822;10.152;2023-04-25T02:37:36;13.60;;;3.17;;
26512;SDS011;14186;53.822;10.152;2023-04-25T02:42:36;18.42;;;3.10;;
26512;SDS011;14186;53.822;10.152;2023-04-25T02:47:37;25.52;;;3.25;;
26512;SDS011;14186;53.822;10.152;2023-04-25T02:52:38;17.70;;;3.65;;
26512;SDS011;14186;53.822;10.152;2023-04-25T02:57:38;21.63;;;3.13;;
26512;SDS011;14186;53.822;10.152;2023-04-25T03:02:39;18.00;;;3.55;;
26512;SDS011;14186;53.822;10.152;2023-04-25T03:07:40;24.65;;;4.25;;
26512;SDS011;14186;53.822;10.152;2023-04-25T03:12:40;20.13;;;3.22;;
26512;SDS011;14186;53.822;10.152;2023-04-25T03:17:40;23.10;;;3.92;;
26512;SDS011;14186;53.822;10.152;2023-04-25T03:22:42;17.55;;;4.03;;
26512;SDS011;14186;53.822;10.152;2023-04-25T03:27:42;16.85;;;2.90;;
26512;SDS011;14186;53.822;10.152;2023-04-25T03:32:42;22.45;;;3.28;;
26512;SDS011;14186;53.822;10.152;2023-04-25T03:37:44;22.48;;;3.35;;
26512;SDS011;14186;53.822;10.152;2023-04-25T03:42:44;13.18;;;2.60;;
26512;SDS011;14186;53.822;10.152;2023-04-25T03:47:44;12.23;;;2.70;;
26512;SDS011;14186;53.822;10.152;2023-04-25T03:52:46;19.30;;;2.78;;
26512;SDS011;14186;53.822;10.152;2023-04-25T03:57:46;19.17;;;3.50;;
26512;SDS011;14186;53.822;10.152;2023-04-25T04:02:46;29.55;;;3.53;;
26512;SDS011;14186;53.822;10.152;2023-04-25T04:07:48;14.63;;;3.40;;
26512;SDS011;14186;53.822;10.152;2023-04-25T04:12:48;16.33;;;2.83;;
26512;SDS011;14186;53.822;10.152;2023-04-25T04:17:48;17.63;;;2.75;;
26512;SDS011;14186;53.822;10.152;2023-04-25T04:22:50;12.73;;;3.10;;
26512;SDS011;14186;53.822;10.152;2023-04-25T04:27:50;18.35;;;3.67;;
26512;SDS011;14186;53.822;10.152;2023-04-25T04:32:50;22.10;;;3.50;;
26512;SDS011;14186;53.822;10.152;2023-04-25T04:37:52;19.63;;;3.40;;
26512;SDS011;14186;53.822;10.152;2023-04-25T04:42:53;14.50;;;2.78;;
26512;SDS011;14186;53.822;10.152;2023-04-25T04:47:53;15.85;;;3.13;;
26512;SDS011;14186;53.822;10.152;2023-04-25T04:52:54;14.20;;;2.67;;
26512;SDS011;14186;53.822;10.152;2023-04-25T04:57:55;15.40;;;3.08;;
26512;SDS011;14186;53.822;10.152;2023-04-25T05:02:55;16.20;;;2.53;;
26512;SDS011;14186;53.822;10.152;2023-04-25T05:07:56;17.77;;;3.40;;
26512;SDS011;14186;53.822;10.152;2023-04-25T05:12:57;10.57;;;2.22;;
26512;SDS011;14186;53.822;10.152;2023-04-25T05:17:57;17.40;;;2.72;;
26512;SDS011;14186;53.822;10.152;2023-04-25T05:22:58;16.88;;;2.35;;
26512;SDS011;14186;53.822;10.152;2023-04-25T05:27:59;15.23;;;2.97;;
26512;SDS011;14186;53.822;10.152;2023-04-25T05:32:59;16.60;;;2.42;;
26512;SDS011;14186;53.822;10.152;2023-04-25T05:38:00;12.77;;;2.17;;
26512;SDS011;14186;53.822;10.152;2023-04-25T05:43:00;10.82;;;2.00;;
26512;SDS011;14186;53.822;10.152;2023-04-25T05:48:01;9.00;;;2.45;;
26512;SDS011;14186;53.822;10.152;2023-04-25T05:53:02;9.48;;;2.40;;
26512;SDS011;14186;53.822;10.152;2023-04-25T05:58:02;7.82;;;2.10;;
26512;SDS011;14186;53.822;10.152;2023-04-25T06:03:03;10.60;;;1.98;;
26512;SDS011;14186;53.822;10.152;2023-04-25T06:08:04;13.35;;;2.15;;
26512;SDS011;14186;53.822;10.152;2023-04-25T06:13:05;11.23;;;2.00;;
26512;SDS011;14186;53.822;10.152;2023-04-25T06:18:05;10.95;;;3.08;;
26512;SDS011;14186;53.822;10.152;2023-04-25T06:23:07;12.70;;;2.20;;
26512;SDS011;14186;53.822;10.152;2023-04-25T06:28:07;13.40;;;2.60;;
26512;SDS011;14186;53.822;10.152;2023-04-25T06:33:07;11.90;;;2.25;;
26512;SDS011;14186;53.822;10.152;2023-04-25T06:38:08;14.05;;;3.22;;
26512;SDS011;14186;53.822;10.152;2023-04-25T06:43:09;17.25;;;3.08;;
26512;SDS011;14186;53.822;10.152;2023-04-25T06:48:09;10.90;;;2.00;;
26512;SDS011;14186;53.822;10.152;2023-04-25T06:53:10;8.70;;;2.33;;
26512;SDS011;14186;53.822;10.152;2023-04-25T06:58:11;12.68;;;2.85;;
26512;SDS011;14186;53.822;10.152;2023-04-25T07:03:11;13.00;;;2.72;;
26512;SDS011;14186;53.822;10.152;2023-04-25T07:08:12;13.75;;;1.90;;
26512;SDS011;14186;53.822;10.152;2023-04-25T07:13:13;8.23;;;1.75;;
26512;SDS011;14186;53.822;10.152;2023-04-25T07:18:13;11.70;;;2.45;;
26512;SDS011;14186;53.822;10.152;2023-04-25T07:23:14;12.38;;;1.75;;
26512;SDS011;14186;53.822;10.152;2023-04-25T07:28:15;9.68;;;1.98;;
26512;SDS011;14186;53.822;10.152;2023-04-25T07:33:15;14.30;;;1.98;;
26512;SDS011;14186;53.822;10.152;2023-04-25T07:38:16;6.03;;;1.75;;
26512;SDS011;14186;53.822;10.152;2023-04-25T07:43:16;7.95;;;1.42;;
26512;SDS011;14186;53.822;10.152;2023-04-25T07:48:17;9.82;;;1.63;;
26512;SDS011;14186;53.822;10.152;2023-04-25T07:53:19;11.85;;;1.70;;
26512;SDS011;14186;53.822;10.152;2023-04-25T07:58:19;11.38;;;1.70;;
26512;SDS011;14186;53.822;10.152;2023-04-25T08:03:19;11.32;;;1.88;;
26512;SDS011;14186;53.822;10.152;2023-04-25T08:08:21;13.68;;;1.90;;
26512;SDS011;14186;53.822;10.152;2023-04-25T08:13:21;14.15;;;2.70;;
26512;SDS011;14186;53.822;10.152;2023-04-25T08:18:21;14.60;;;2.20;;
26512;SDS011;14186;53.822;10.152;2023-04-25T08:23:23;14.10;;;2.22;;
26512;SDS011;14186;53.822;10.152;2023-04-25T08:28:23;9.55;;;1.55;;
26512;SDS011;14186;53.822;10.152;2023-04-25T08:33:23;9.85;;;2.83;;
26512;SDS011;14186;53.822;10.152;2023-04-25T08:38:25;14.20;;;1.85;;
26512;SDS011;14186;53.822;10.152;2023-04-25T08:43:25;11.15;;;1.75;;
26512;SDS011;14186;53.822;10.152;2023-04-25T08:48:26;11.90;;;1.63;;
26512;SDS011;14186;53.822;10.152;2023-04-25T08:53:29;7.22;;;2.35;;
26512;SDS011;14186;53.822;10.152;2023-04-25T08:58:29;6.07;;;1.40;;
26512;SDS011;14186;53.822;10.152;2023-04-25T09:03:30;9.10;;;1.58;;
26512;SDS011;14186;53.822;10.152;2023-04-25T09:08:32;6.23;;;1.40;;
26512;SDS011;14186;53.822;10.152;2023-04-25T09:13:32;8.80;;;1.70;;
26512;SDS011;14186;53.822;10.152;2023-04-25T09:18:33;6.95;;;1.02;;
26512;SDS011;14186;53.822;10.152;2023-04-25T09:23:39;6.93;;;1.10;;
26512;SDS011;14186;53.822;10.152;2023-04-25T09:28:40;6.65;;;1.00;;
26512;SDS011;14186;53.822;10.152;2023-04-25T09:33:40;6.63;;;1.33;;
26512;SDS011;14186;53.822;10.152;2023-04-25T09:38:42;10.63;;;1.13;;
26512;SDS011;14186;53.822;10.152;2023-04-25T09:43:44;13.77;;;1.50;;
26512;SDS011;14186;53.822;10.152;2023-04-25T09:48:47;8.52;;;1.33;;
26512;SDS011;14186;53.822;10.152;2023-04-25T09:53:49;7.03;;;1.00;;
26512;SDS011;14186;53.822;10.152;2023-04-25T09:58:49;8.75;;;1.50;;
26512;SDS011;14186;53.822;10.152;2023-04-25T10:03:51;7.05;;;1.52;;
26512;SDS011;14186;53.822;10.152;2023-04-25T10:08:54;8.20;;;1.30;;
26512;SDS011;14186;53.822;10.152;2023-04-25T10:13:54;4.82;;;0.90;;
26512;SDS011;14186;53.822;10.152;2023-04-25T10:18:55;2.47;;;0.70;;
26512;SDS011;14186;53.822;10.152;2023-04-25T10:23:57;4.47;;;1.20;;
26512;SDS011;14186;53.822;10.152;2023-04-25T10:28:58;5.72;;;1.10;;
26512;SDS011;14186;53.822;10.152;2023-04-25T10:33:59;4.60;;;0.68;;
26512;SDS011;14186;53.822;10.152;2023-04-25T10:39:04;4.03;;;0.90;;
26512;SDS011;14186;53.822;10.152;2023-04-25T10:44:05;10.70;;;0.98;;
26512;SDS011;14186;53.822;10.152;2023-04-25T10:49:05;8.77;;;1.00;;
26512;SDS011;14186;53.822;10.152;2023-04-25T10:54:09;8.25;;;1.50;;
26512;SDS011;14186;53.822;10.152;2023-04-25T10:59:10;5.70;;;1.27;;
26512;SDS011;14186;53.822;10.152;2023-04-25T11:04:19;4.18;;;0.77;;
26512;SDS011;14186;53.822;10.152;2023-04-25T11:09:23;6.97;;;1.52;;
26512;SDS011;14186;53.822;10.152;2023-04-25T11:14:23;4.18;;;1.02;;
26512;SDS011;14186;53.822;10.152;2023-04-25T11:19:24;5.53;;;0.82;;
26512;SDS011;14186;53.822;10.152;2023-04-25T11:24:26;6.28;;;0.88;;
26512;SDS011;14186;53.822;10.152;2023-04-25T11:29:26;6.47;;;0.80;;
26512;SDS011;14186;53.822;10.152;2023-04-25T11:34:27;7.13;;;1.00;;
26512;SDS011;14186;53.822;10.152;2023-04-25T11:39:28;3.15;;;0.82;;
26512;SDS011;14186;53.822;10.152;2023-04-25T11:44:29;4.88;;;1.33;;
26512;SDS011;14186;53.822;10.152;2023-04-25T11:49:30;6.82;;;1.42;;
26512;SDS011;14186;53.822;10.152;2023-04-25T11:54:31;4.55;;;1.30;;
26512;SDS011;14186;53.822;10.152;2023-04-25T11:59:34;8.65;;;1.10;;
26512;SDS011;14186;53.822;10.152;2023-04-25T12:04:34;9.35;;;1.73;;
26512;SDS011;14186;53.822;10.152;2023-04-25T12:09:36;10.98;;;1.63;;
26512;SDS011;14186;53.822;10.152;2023-04-25T12:14:36;11.15;;;1.38;;
26512;SDS011;14186;53.822;10.152;2023-04-25T12:19:37;17.98;;;2.08;;
26512;SDS011;14186;53.822;10.152;2023-04-25T12:24:39;6.72;;;1.10;;
26512;SDS011;14186;53.822;10.152;2023-04-25T12:29:39;7.63;;;0.80;;
26512;SDS011;14186;53.822;10.152;2023-04-25T12:34:39;3.92;;;0.82;;
26512;SDS011;14186;53.822;10.152;2023-04-25T12:39:41;4.68;;;0.80;;
26512;SDS011;14186;53.822;10.152;2023-04-25T12:44:41;8.75;;;1.20;;
26512;SDS011;14186;53.822;10.152;2023-04-25T12:49:41;6.13;;;0.93;;
26512;SDS011;14186;53.822;10.152;2023-04-25T12:54:42;3.67;;;0.50;;
26512;SDS011;14186;53.822;10.152;2023-04-25T12:59:43;7.38;;;0.98;;
26512;SDS011;14186;53.822;10.152;2023-04-25T13:04:43;5.45;;;1.10;;
26512;SDS011;14186;53.822;10.152;2023-04-25T13:09:45;2.20;;;0.57;;
26512;SDS011;14186;53.822;10.152;2023-04-25T13:14:45;5.28;;;0.90;;
26512;SDS011;14186;53.822;10.152;2023-04-25T13:19:45;6.55;;;0.80;;
26512;SDS011;14186;53.822;10.152;2023-04-25T13:24:46;6.93;;;0.70;;
26512;SDS011;14186;53.822;10.152;2023-04-25T13:29:47;8.52;;;1.42;;
26512;SDS011;14186;53.822;10.152;2023-04-25T13:34:47;5.35;;;1.05;;
26512;SDS011;14186;53.822;10.152;2023-04-25T13:39:48;5.68;;;1.15;;
26512;SDS011;14186;53.822;10.152;2023-04-25T13:44:49;5.35;;;1.08;;
26512;SDS011;14186;53.822;10.152;2023-04-25T13:49:49;4.00;;;0.85;;
26512;SDS011;14186;53.822;10.152;2023-04-25T13:54:50;9.82;;;2.63;;
26512;SDS011;14186;53.822;10.152;2023-04-25T13:59:51;14.23;;;1.30;;
26512;SDS011;14186;53.822;10.152;2023-04-25T14:04:51;8.80;;;2.15;;
26512;SDS011;14186;53.822;10.152;2023-04-25T14:09:53;8.93;;;1.52;;
26512;SDS011;14186;53.822;10.152;2023-04-25T14:14:53;2.75;;;0.68;;
26512;SDS011;14186;53.822;10.152;2023-04-25T14:19:53;7.03;;;1.20;;
26512;SDS011;14186;53.822;10.152;2023-04-25T14:24:55;7.13;;;1.40;;
26512;SDS011;14186;53.822;10.152;2023-04-25T14:29:55;6.85;;;1.20;;
26512;SDS011;14186;53.822;10.152;2023-04-25T14:34:55;11.85;;;1.80;;
26512;SDS011;14186;53.822;10.152;2023-04-25T14:39:56;6.88;;;1.58;;
26512;SDS011;14186;53.822;10.152;2023-04-25T14:44:57;10.68;;;1.30;;
26512;SDS011;14186;53.822;10.152;2023-04-25T14:49:57;4.47;;;0.95;;
26512;SDS011;14186;53.822;10.152;2023-04-25T14:54:58;6.97;;;1.38;;
26512;SDS011;14186;53.822;10.152;2023-04-25T14:59:59;11.45;;;1.42;;
26512;SDS011;14186;53.822;10.152;2023-04-25T15:04:59;6.40;;;1.20;;
26512;SDS011;14186;53.822;10.152;2023-04-25T15:10:01;3.85;;;1.38;;
26512;SDS011;14186;53.822;10.152;2023-04-25T15:15:01;4.25;;;1.30;;
26512;SDS011;14186;53.822;10.152;2023-04-25T15:20:02;6.75;;;1.23;;
26512;SDS011;14186;53.822;10.152;2023-04-25T15:25:04;9.02;;;1.20;;
26512;SDS011;14186;53.822;10.152;2023-04-25T15:30:04;5.28;;;1.17;;
26512;SDS011;14186;53.822;10.152;2023-04-25T15:35:05;7.65;;;0.80;;
26512;SDS011;14186;53.822;10.152;2023-04-25T15:40:08;5.20;;;0.63;;
26512;SDS011;14186;53.822;10.152;2023-04-25T15:45:09;10.13;;;1.70;;
26512;SDS011;14186;53.822;10.152;2023-04-25T15:50:10;9.68;;;1.58;;
26512;SDS011;14186;53.822;10.152;2023-04-25T15:55:13;6.45;;;0.93;;
26512;SDS011;14186;53.822;10.152;2023-04-25T16:00:13;6.97;;;0.93;;
26512;SDS011;14186;53.822;10.152;2023-04-25T16:05:14;6.40;;;0.77;;
26512;SDS011;14186;53.822;10.152;2023-04-25T16:10:17;8.82;;;1.23;;
26512;SDS011;14186;53.822;10.152;2023-04-25T16:15:17;7.85;;;1.23;;
26512;SDS011;14186;53.822;10.152;2023-04-25T16:20:18;8.13;;;0.80;;
26512;SDS011;14186;53.822;10.152;2023-04-25T16:25:19;10.77;;;1.63;;
26512;SDS011;14186;53.822;10.152;2023-04-25T16:30:19;5.28;;;1.05;;
26512;SDS011;14186;53.822;10.152;2023-04-25T16:35:20;9.38;;;1.23;;
26512;SDS011;14186;53.822;10.152;2023-04-25T16:40:21;8.68;;;1.30;;
26512;SDS011;14186;53.822;10.152;2023-04-25T16:45:21;8.23;;;1.75;;
26512;SDS011;14186;53.822;10.152;2023-04-25T16:50:22;13.57;;;1.75;;
26512;SDS011;14186;53.822;10.152;2023-04-25T16:55:23;10.00;;;1.10;;
26512;SDS011;14186;53.822;10.152;2023-04-25T17:00:23;4.53;;;1.00;;
26512;SDS011;14186;53.822;10.152;2023-04-25T17:05:24;19.58;;;2.55;;
26512;SDS011;14186;53.822;10.152;2023-04-25T17:10:25;7.22;;;1.25;;
26512;SDS011;14186;53.822;10.152;2023-04-25T17:15:27;8.52;;;1.10;;
26512;SDS011;14186;53.822;10.152;2023-04-25T17:20:27;4.70;;;1.05;;
26512;SDS011;14186;53.822;10.152;2023-04-25T17:25:28;7.85;;;1.65;;
26512;SDS011;14186;53.822;10.152;2023-04-25T17:30:29;12.27;;;1.67;;
26512;SDS011;14186;53.822;10.152;2023-04-25T17:35:29;6.32;;;0.88;;
26512;SDS011;14186;53.822;10.152;2023-04-25T17:40:30;6.00;;;1.90;;
26512;SDS011;14186;53.822;10.152;2023-04-25T17:45:31;8.82;;;1.48;;
26512;SDS011;14186;53.822;10.152;2023-04-25T17:50:31;12.70;;;1.65;;
26512;SDS011;14186;53.822;10.152;2023-04-25T17:55:32;11.25;;;1.08;;
26512;SDS011;14186;53.822;10.152;2023-04-25T18:00:32;5.30;;;0.90;;
26512;SDS011;14186;53.822;10.152;2023-04-25T18:05:33;8.63;;;1.05;;
26512;SDS011;14186;53.822;10.152;2023-04-25T18:10:34;7.35;;;1.23;;
26512;SDS011;14186;53.822;10.152;2023-04-25T18:15:35;4.80;;;1.00;;
26512;SDS011;14186;53.822;10.152;2023-04-25T18:20:35;9.45;;;1.30;;
26512;SDS011;14186;53.822;10.152;2023-04-25T18:25:36;5.13;;;1.07;;
26512;SDS011;14186;53.822;10.152;2023-04-25T18:30:37;8.10;;;1.20;;
26512;SDS011;14186;53.822;10.152;2023-04-25T18:35:37;9.00;;;1.73;;
26512;SDS011;14186;53.822;10.152;2023-04-25T18:40:38;6.65;;;1.40;;
26512;SDS011;14186;53.822;10.152;2023-04-25T18:45:39;8.52;;;1.08;;
26512;SDS011;14186;53.822;10.152;2023-04-25T18:50:39;8.30;;;1.33;;
26512;SDS011;14186;53.822;10.152;2023-04-25T18:55:40;6.80;;;1.30;;
26512;SDS011;14186;53.822;10.152;2023-04-25T19:00:41;5.85;;;0.80;;
26512;SDS011;14186;53.822;10.152;2023-04-25T19:05:41;9.68;;;0.75;;
26512;SDS011;14186;53.822;10.152;2023-04-25T19:10:42;8.10;;;1.15;;
26512;SDS011;14186;53.822;10.152;2023-04-25T19:15:43;13.43;;;1.27;;
26512;SDS011;14186;53.822;10.152;2023-04-25T19:20:43;7.25;;;1.20;;
26512;SDS011;14186;53.822;10.152;2023-04-25T19:25:44;11.02;;;1.20;;
26512;SDS011;14186;53.822;10.152;2023-04-25T19:30:45;10.40;;;1.40;;
26512;SDS011;14186;53.822;10.152;2023-04-25T19:35:45;10.43;;;1.67;;
26512;SDS011;14186;53.822;10.152;2023-04-25T19:40:47;11.20;;;1.92;;
26512;SDS011;14186;53.822;10.152;2023-04-25T19:45:47;8.38;;;1.35;;
26512;SDS011;14186;53.822;10.152;2023-04-25T19:50:47;7.68;;;1.27;;
26512;SDS011;14186;53.822;10.152;2023-04-25T19:55:49;11.07;;;1.60;;
26512;SDS011;14186;53.822;10.152;2023-04-25T20:00:49;8.98;;;1.55;;
26512;SDS011;14186;53.822;10.152;2023-04-25T20:05:49;9.48;;;1.58;;
26512;SDS011;14186;53.822;10.152;2023-04-25T20:10:51;8.63;;;1.75;;
26512;SDS011;14186;53.822;10.152;2023-04-25T20:15:51;10.88;;;1.52;;
26512;SDS011;14186;53.822;10.152;2023-04-25T20:20:52;5.28;;;1.10;;
26512;SDS011;14186;53.822;10.152;2023-04-25T20:25:54;6.55;;;1.40;;
26512;SDS011;14186;53.822;10.152;2023-04-25T20:30:54;9.13;;;1.10;;
26512;SDS011;14186;53.822;10.152;2023-04-25T20:35:54;6.20;;;1.05;;
26512;SDS011;14186;53.822;10.152;2023-04-25T20:40:56;6.10;;;0.98;;
26512;SDS011;14186;53.822;10.152;2023-04-25T20:45:56;6.68;;;1.10;;
26512;SDS011;14186;53.822;10.152;2023-04-25T20:50:56;7.57;;;1.38;;
26512;SDS011;14186;53.822;10.152;2023-04-25T20:55:58;13.82;;;1.48;;
26512;SDS011;14186;53.822;10.152;2023-04-25T21:00:58;10.65;;;1.30;;
26512;SDS011;14186;53.822;10.152;2023-04-25T21:05:58;7.25;;;1.35;;
26512;SDS011;14186;53.822;10.152;2023-04-25T21:11:00;9.93;;;1.17;;
26512;SDS011;14186;53.822;10.152;2023-04-25T21:16:00;12.02;;;1.50;;
26512;SDS011;14186;53.822;10.152;2023-04-25T21:21:00;5.57;;;1.10;;
26512;SDS011;14186;53.822;10.152;2023-04-25T21:26:02;4.45;;;0.73;;
26512;SDS011;14186;53.822;10.152;2023-04-25T21:31:02;6.78;;;1.25;;
26512;SDS011;14186;53.822;10.152;2023-04-25T21:36:02;12.20;;;0.80;;
26512;SDS011;14186;53.822;10.152;2023-04-25T21:41:04;5.10;;;0.80;;
26512;SDS011;14186;53.822;10.152;2023-04-25T21:46:04;6.63;;;0.90;;
26512;SDS011;14186;53.822;10.152;2023-04-25T21:51:04;5.57;;;0.88;;
26512;SDS011;14186;53.822;10.152;2023-04-25T21:56:06;10.18;;;1.60;;
26512;SDS011;14186;53.822;10.152;2023-04-25T22:01:06;9.35;;;1.17;;
26512;SDS011;14186;53.822;10.152;2023-04-25T22:06:07;4.30;;;0.70;;
26512;SDS011;14186;53.822;10.152;2023-04-25T22:11:08;7.55;;;0.90;;
26512;SDS011;14186;53.822;10.152;2023-04-25T22:16:08;5.85;;;0.88;;
26512;SDS011;14186;53.822;10.152;2023-04-25T22:21:09;4.20;;;0.73;;
26512;SDS011;14186;53.822;10.152;2023-04-25T22:26:10;9.07;;;0.90;;
26512;SDS011;14186;53.822;10.152;2023-04-25T22:31:10;7.82;;;1.58;;
26512;SDS011;14186;53.822;10.152;2023-04-25T22:36:11;5.93;;;0.93;;
26512;SDS011;14186;53.822;10.152;2023-04-25T22:41:12;5.88;;;0.80;;
26512;SDS011;14186;53.822;10.152;2023-04-25T22:46:16;9.00;;;1.40;;
26512;SDS011;14186;53.822;10.152;2023-04-25T22:51:16;6.45;;;1.10;;
26512;SDS011;14186;53.822;10.152;2023-04-25T22:56:18;3.85;;;0.88;;
26512;SDS011;14186;53.822;10.152;2023-04-25T23:01:18;4.63;;;0.85;;
26512;SDS011;14186;53.822;10.152;2023-04-25T23:06:18;7.45;;;1.15;;
26512;SDS011;14186;53.822;10.152;2023-04-25T23:11:20;5.47;;;1.00;;
26512;SDS011;14186;53.822;10.152;2023-04-25T23:16:20;8.32;;;1.38;;
26512;SDS011;14186;53.822;10.152;2023-04-25T23:21:20;9.98;;;1.10;;
26512;SDS011;14186;53.822;10.152;2023-04-25T23:26:22;10.75;;;1.35;;
26512;SDS011;14186;53.822;10.152;2023-04-25T23:31:22;6.50;;;1.00;;
26512;SDS011;14186;53.822;10.152;2023-04-25T23:36:22;7.72;;;1.27;;
26512;SDS011;14186;53.822;10.152;2023-04-25T23:41:24;13.60;;;1.52;;
26512;SDS011;14186;53.822;10.152;2023-04-25T23:46:24;25.00;;;1.63;;
26512;SDS011;14186;53.822;10.152;2023-04-25T23:51:24;3.30;;;1.10;;
26512;SDS011;14186;53.822;10.152;2023-04-25T23:56:26;7.20;;;1.85;;
